Hewlett Bay, New York
Current Conditions -  °F | °C
As of 3:51 PM on Thursday 23 Oct 2014 (Local Time) from KJFK Reporting Station
Broken Clouds Broken Clouds  
Wind Chill: 53°   Ceiling: 2500
Heat Index: 53°   Visibility: 10mi
Dew Point: 46°   Wind: 20mph
Humidity: 77%   Direction: 340°NNW
Pressure: 29.67"   Gusts: 26mph
Location:  40.637°N, 73.6912°W
Report Text: KJFK 231951Z 34017G23KT 10SM SCT018 BKN025 BKN039 BKN250 12/08 A2967 RMK AO2 PK WND 34030/1934 RAE32 SLP047 P0000 T01170078
Loading
Personal Weather Stations






























Interactive Weather Map
Tropical Storm Tracking
New forecast layout! Learn more

10-Day Weather Forecast

Advertisements
Track Severe Weather on mobile